sensor_id;sensor_type;location;lat;lon;timestamp;P1;durP1;ratioP1;P2;durP2;ratioP2
75320;SDS011;68337;52.196;5.660;2023-07-29T00:00:52;5.43;;;4.93;;
75320;SDS011;68337;52.196;5.660;2023-07-29T00:03:18;4.85;;;4.40;;
75320;SDS011;68337;52.196;5.660;2023-07-29T00:05:44;5.28;;;4.85;;
75320;SDS011;68337;52.196;5.660;2023-07-29T00:08:10;5.20;;;4.45;;
75320;SDS011;68337;52.196;5.660;2023-07-29T00:10:36;5.85;;;4.47;;
75320;SDS011;68337;52.196;5.660;2023-07-29T00:13:02;4.88;;;4.47;;
75320;SDS011;68337;52.196;5.660;2023-07-29T00:15:29;5.43;;;4.80;;
75320;SDS011;68337;52.196;5.660;2023-07-29T00:17:54;4.80;;;4.35;;
75320;SDS011;68337;52.196;5.660;2023-07-29T00:20:20;7.68;;;4.68;;
75320;SDS011;68337;52.196;5.660;2023-07-29T00:22:46;6.35;;;4.10;;
75320;SDS011;68337;52.196;5.660;2023-07-29T00:25:14;4.50;;;4.10;;
75320;SDS011;68337;52.196;5.660;2023-07-29T00:27:41;7.65;;;4.45;;
75320;SDS011;68337;52.196;5.660;2023-07-29T00:30:07;4.55;;;3.90;;
75320;SDS011;68337;52.196;5.660;2023-07-29T00:32:33;4.25;;;3.88;;
75320;SDS011;68337;52.196;5.660;2023-07-29T00:35:00;4.32;;;3.92;;
75320;SDS011;68337;52.196;5.660;2023-07-29T00:37:26;4.50;;;4.10;;
75320;SDS011;68337;52.196;5.660;2023-07-29T00:39:52;4.25;;;3.85;;
75320;SDS011;68337;52.196;5.660;2023-07-29T00:42:18;4.10;;;3.72;;
75320;SDS011;68337;52.196;5.660;2023-07-29T00:44:44;4.00;;;3.63;;
75320;SDS011;68337;52.196;5.660;2023-07-29T00:47:09;4.93;;;4.18;;
75320;SDS011;68337;52.196;5.660;2023-07-29T00:49:37;4.97;;;4.47;;
75320;SDS011;68337;52.196;5.660;2023-07-29T00:52:03;4.53;;;3.75;;
75320;SDS011;68337;52.196;5.660;2023-07-29T00:54:29;4.15;;;3.75;;
75320;SDS011;68337;52.196;5.660;2023-07-29T00:56:55;7.00;;;4.60;;
75320;SDS011;68337;52.196;5.660;2023-07-29T00:59:21;4.45;;;4.13;;
75320;SDS011;68337;52.196;5.660;2023-07-29T01:01:48;4.38;;;3.97;;
75320;SDS011;68337;52.196;5.660;2023-07-29T01:04:13;5.03;;;4.10;;
75320;SDS011;68337;52.196;5.660;2023-07-29T01:12:20;6.93;;;4.13;;
75320;SDS011;68337;52.196;5.660;2023-07-29T01:15:11;5.00;;;3.17;;
75320;SDS011;68337;52.196;5.660;2023-07-29T01:17:52;5.82;;;4.03;;
75320;SDS011;68337;52.196;5.660;2023-07-29T01:20:29;4.88;;;3.97;;
75320;SDS011;68337;52.196;5.660;2023-07-29T01:23:02;4.30;;;4.00;;
75320;SDS011;68337;52.196;5.660;2023-07-29T01:25:28;3.95;;;3.13;;
75320;SDS011;68337;52.196;5.660;2023-07-29T01:27:53;4.18;;;3.10;;
75320;SDS011;68337;52.196;5.660;2023-07-29T01:30:20;3.35;;;3.15;;
75320;SDS011;68337;52.196;5.660;2023-07-29T01:32:55;3.20;;;3.00;;
75320;SDS011;68337;52.196;5.660;2023-07-29T01:35:44;3.53;;;3.33;;
75320;SDS011;68337;52.196;5.660;2023-07-29T01:38:19;3.10;;;2.83;;
75320;SDS011;68337;52.196;5.660;2023-07-29T01:40:49;4.50;;;3.35;;
75320;SDS011;68337;52.196;5.660;2023-07-29T01:43:17;8.07;;;3.38;;
75320;SDS011;68337;52.196;5.660;2023-07-29T01:45:48;4.85;;;3.90;;
75320;SDS011;68337;52.196;5.660;2023-07-29T01:48:14;3.42;;;3.13;;
75320;SDS011;68337;52.196;5.660;2023-07-29T01:50:40;3.42;;;3.05;;
75320;SDS011;68337;52.196;5.660;2023-07-29T01:53:05;5.32;;;2.92;;
75320;SDS011;68337;52.196;5.660;2023-07-29T01:55:31;3.95;;;3.28;;
75320;SDS011;68337;52.196;5.660;2023-07-29T01:57:57;3.22;;;2.92;;
75320;SDS011;68337;52.196;5.660;2023-07-29T02:00:23;3.22;;;2.92;;
75320;SDS011;68337;52.196;5.660;2023-07-29T02:02:49;6.60;;;3.33;;
75320;SDS011;68337;52.196;5.660;2023-07-29T02:05:15;4.18;;;2.72;;
75320;SDS011;68337;52.196;5.660;2023-07-29T02:07:40;4.32;;;3.53;;
75320;SDS011;68337;52.196;5.660;2023-07-29T02:10:06;3.97;;;3.25;;
75320;SDS011;68337;52.196;5.660;2023-07-29T02:12:33;4.15;;;3.63;;
75320;SDS011;68337;52.196;5.660;2023-07-29T02:14:58;4.45;;;3.60;;
75320;SDS011;68337;52.196;5.660;2023-07-29T02:17:24;4.72;;;3.72;;
75320;SDS011;68337;52.196;5.660;2023-07-29T02:19:51;4.97;;;3.67;;
75320;SDS011;68337;52.196;5.660;2023-07-29T02:22:17;6.05;;;4.10;;
75320;SDS011;68337;52.196;5.660;2023-07-29T02:24:43;4.72;;;3.70;;
75320;SDS011;68337;52.196;5.660;2023-07-29T02:27:11;3.95;;;3.55;;
75320;SDS011;68337;52.196;5.660;2023-07-29T02:29:37;7.40;;;4.00;;
75320;SDS011;68337;52.196;5.660;2023-07-29T02:32:03;4.07;;;3.67;;
75320;SDS011;68337;52.196;5.660;2023-07-29T02:34:29;6.75;;;3.50;;
75320;SDS011;68337;52.196;5.660;2023-07-29T02:36:55;9.88;;;5.07;;
75320;SDS011;68337;52.196;5.660;2023-07-29T02:39:21;8.80;;;4.47;;
75320;SDS011;68337;52.196;5.660;2023-07-29T02:41:48;7.07;;;3.95;;
75320;SDS011;68337;52.196;5.660;2023-07-29T02:44:14;5.03;;;3.67;;
75320;SDS011;68337;52.196;5.660;2023-07-29T02:46:41;6.40;;;4.10;;
75320;SDS011;68337;52.196;5.660;2023-07-29T02:49:06;8.50;;;4.72;;
75320;SDS011;68337;52.196;5.660;2023-07-29T02:51:32;6.18;;;4.82;;
75320;SDS011;68337;52.196;5.660;2023-07-29T02:53:58;5.75;;;4.55;;
75320;SDS011;68337;52.196;5.660;2023-07-29T02:56:24;6.60;;;4.68;;
75320;SDS011;68337;52.196;5.660;2023-07-29T02:58:49;6.57;;;4.10;;
75320;SDS011;68337;52.196;5.660;2023-07-29T03:01:18;7.35;;;4.78;;
75320;SDS011;68337;52.196;5.660;2023-07-29T03:03:44;6.13;;;4.95;;
75320;SDS011;68337;52.196;5.660;2023-07-29T03:06:10;4.72;;;4.25;;
75320;SDS011;68337;52.196;5.660;2023-07-29T03:08:38;5.05;;;4.55;;
75320;SDS011;68337;52.196;5.660;2023-07-29T03:11:10;7.05;;;4.70;;
75320;SDS011;68337;52.196;5.660;2023-07-29T03:13:38;6.28;;;4.30;;
75320;SDS011;68337;52.196;5.660;2023-07-29T03:16:09;10.88;;;5.55;;
75320;SDS011;68337;52.196;5.660;2023-07-29T03:18:37;5.00;;;4.60;;
75320;SDS011;68337;52.196;5.660;2023-07-29T03:21:03;7.80;;;5.45;;
75320;SDS011;68337;52.196;5.660;2023-07-29T03:23:36;8.48;;;5.72;;
75320;SDS011;68337;52.196;5.660;2023-07-29T03:26:03;10.63;;;6.10;;
75320;SDS011;68337;52.196;5.660;2023-07-29T03:28:35;9.70;;;6.22;;
75320;SDS011;68337;52.196;5.660;2023-07-29T03:31:02;9.73;;;6.07;;
75320;SDS011;68337;52.196;5.660;2023-07-29T03:33:28;8.65;;;6.35;;
75320;SDS011;68337;52.196;5.660;2023-07-29T03:35:57;7.03;;;6.25;;
75320;SDS011;68337;52.196;5.660;2023-07-29T03:38:23;8.40;;;6.00;;
75320;SDS011;68337;52.196;5.660;2023-07-29T03:40:50;8.98;;;5.30;;
75320;SDS011;68337;52.196;5.660;2023-07-29T03:43:16;6.13;;;5.53;;
75320;SDS011;68337;52.196;5.660;2023-07-29T03:45:43;6.00;;;5.28;;
75320;SDS011;68337;52.196;5.660;2023-07-29T03:48:09;8.45;;;5.32;;
75320;SDS011;68337;52.196;5.660;2023-07-29T03:50:35;9.10;;;5.63;;
75320;SDS011;68337;52.196;5.660;2023-07-29T03:53:02;7.63;;;5.63;;
75320;SDS011;68337;52.196;5.660;2023-07-29T03:55:29;6.95;;;5.70;;
75320;SDS011;68337;52.196;5.660;2023-07-29T03:57:59;11.23;;;5.93;;
75320;SDS011;68337;52.196;5.660;2023-07-29T04:00:25;9.48;;;6.25;;
75320;SDS011;68337;52.196;5.660;2023-07-29T04:02:52;8.05;;;5.20;;
75320;SDS011;68337;52.196;5.660;2023-07-29T04:05:18;6.43;;;5.53;;
75320;SDS011;68337;52.196;5.660;2023-07-29T04:07:44;7.13;;;5.55;;
75320;SDS011;68337;52.196;5.660;2023-07-29T04:10:10;6.35;;;5.32;;
75320;SDS011;68337;52.196;5.660;2023-07-29T04:12:37;7.97;;;5.78;;
75320;SDS011;68337;52.196;5.660;2023-07-29T04:15:03;8.75;;;5.78;;
75320;SDS011;68337;52.196;5.660;2023-07-29T04:17:29;8.85;;;5.97;;
75320;SDS011;68337;52.196;5.660;2023-07-29T04:19:55;9.85;;;5.75;;
75320;SDS011;68337;52.196;5.660;2023-07-29T04:22:20;7.03;;;5.43;;
75320;SDS011;68337;52.196;5.660;2023-07-29T04:24:46;8.05;;;5.25;;
75320;SDS011;68337;52.196;5.660;2023-07-29T04:27:12;10.15;;;5.40;;
75320;SDS011;68337;52.196;5.660;2023-07-29T04:29:38;6.85;;;5.25;;
75320;SDS011;68337;52.196;5.660;2023-07-29T04:32:04;6.93;;;4.97;;
75320;SDS011;68337;52.196;5.660;2023-07-29T04:34:30;6.07;;;4.85;;
75320;SDS011;68337;52.196;5.660;2023-07-29T04:36:56;8.55;;;5.53;;
75320;SDS011;68337;52.196;5.660;2023-07-29T04:39:25;6.30;;;5.50;;
75320;SDS011;68337;52.196;5.660;2023-07-29T04:41:51;5.22;;;4.50;;
75320;SDS011;68337;52.196;5.660;2023-07-29T04:44:17;11.27;;;5.25;;
75320;SDS011;68337;52.196;5.660;2023-07-29T04:46:43;6.57;;;4.78;;
75320;SDS011;68337;52.196;5.660;2023-07-29T04:49:08;6.32;;;5.10;;
75320;SDS011;68337;52.196;5.660;2023-07-29T04:51:34;9.00;;;5.03;;
75320;SDS011;68337;52.196;5.660;2023-07-29T04:54:00;5.72;;;4.35;;
75320;SDS011;68337;52.196;5.660;2023-07-29T04:56:25;5.03;;;4.63;;
75320;SDS011;68337;52.196;5.660;2023-07-29T04:58:51;6.15;;;4.45;;
75320;SDS011;68337;52.196;5.660;2023-07-29T05:01:18;5.20;;;3.67;;
75320;SDS011;68337;52.196;5.660;2023-07-29T05:03:43;4.88;;;4.20;;
75320;SDS011;68337;52.196;5.660;2023-07-29T05:06:09;4.47;;;3.90;;
75320;SDS011;68337;52.196;5.660;2023-07-29T05:08:35;7.13;;;4.10;;
75320;SDS011;68337;52.196;5.660;2023-07-29T05:11:01;8.30;;;4.10;;
75320;SDS011;68337;52.196;5.660;2023-07-29T05:13:27;4.63;;;3.85;;
75320;SDS011;68337;52.196;5.660;2023-07-29T05:15:53;4.55;;;3.58;;
75320;SDS011;68337;52.196;5.660;2023-07-29T05:18:19;4.95;;;3.80;;
75320;SDS011;68337;52.196;5.660;2023-07-29T05:20:46;5.30;;;3.97;;
75320;SDS011;68337;52.196;5.660;2023-07-29T05:23:12;8.90;;;4.20;;
75320;SDS011;68337;52.196;5.660;2023-07-29T05:25:38;7.07;;;3.65;;
75320;SDS011;68337;52.196;5.660;2023-07-29T05:28:04;3.70;;;3.35;;
75320;SDS011;68337;52.196;5.660;2023-07-29T05:30:30;5.28;;;3.83;;
75320;SDS011;68337;52.196;5.660;2023-07-29T05:32:58;5.40;;;3.63;;
75320;SDS011;68337;52.196;5.660;2023-07-29T05:35:24;7.63;;;3.88;;
75320;SDS011;68337;52.196;5.660;2023-07-29T05:37:50;4.28;;;3.47;;
75320;SDS011;68337;52.196;5.660;2023-07-29T05:40:16;5.47;;;4.18;;
75320;SDS011;68337;52.196;5.660;2023-07-29T05:42:42;5.45;;;3.53;;
75320;SDS011;68337;52.196;5.660;2023-07-29T05:45:10;3.85;;;3.55;;
75320;SDS011;68337;52.196;5.660;2023-07-29T05:47:35;4.10;;;3.70;;
75320;SDS011;68337;52.196;5.660;2023-07-29T05:50:01;3.85;;;3.53;;
75320;SDS011;68337;52.196;5.660;2023-07-29T05:52:29;5.47;;;3.90;;
75320;SDS011;68337;52.196;5.660;2023-07-29T05:54:56;4.10;;;3.70;;
75320;SDS011;68337;52.196;5.660;2023-07-29T05:57:21;6.20;;;3.60;;
75320;SDS011;68337;52.196;5.660;2023-07-29T05:59:47;6.15;;;4.03;;
75320;SDS011;68337;52.196;5.660;2023-07-29T06:02:13;5.53;;;3.83;;
75320;SDS011;68337;52.196;5.660;2023-07-29T06:04:39;7.35;;;4.18;;
75320;SDS011;68337;52.196;5.660;2023-07-29T06:07:05;6.63;;;4.65;;
75320;SDS011;68337;52.196;5.660;2023-07-29T06:09:31;7.57;;;4.75;;
75320;SDS011;68337;52.196;5.660;2023-07-29T06:11:57;5.57;;;4.32;;
75320;SDS011;68337;52.196;5.660;2023-07-29T06:14:23;6.15;;;4.38;;
75320;SDS011;68337;52.196;5.660;2023-07-29T06:16:49;4.70;;;4.20;;
75320;SDS011;68337;52.196;5.660;2023-07-29T06:19:14;5.88;;;4.30;;
75320;SDS011;68337;52.196;5.660;2023-07-29T06:21:40;7.03;;;4.90;;
75320;SDS011;68337;52.196;5.660;2023-07-29T06:24:07;8.50;;;5.07;;
75320;SDS011;68337;52.196;5.660;2023-07-29T06:26:32;8.70;;;4.78;;
75320;SDS011;68337;52.196;5.660;2023-07-29T06:28:58;7.57;;;4.70;;
75320;SDS011;68337;52.196;5.660;2023-07-29T06:31:24;6.80;;;5.07;;
75320;SDS011;68337;52.196;5.660;2023-07-29T06:33:49;7.57;;;5.28;;
75320;SDS011;68337;52.196;5.660;2023-07-29T06:36:15;8.02;;;5.00;;
75320;SDS011;68337;52.196;5.660;2023-07-29T06:38:41;6.88;;;5.15;;
75320;SDS011;68337;52.196;5.660;2023-07-29T06:41:07;9.43;;;5.30;;
75320;SDS011;68337;52.196;5.660;2023-07-29T06:43:33;7.53;;;4.68;;
75320;SDS011;68337;52.196;5.660;2023-07-29T06:45:58;5.35;;;4.75;;
75320;SDS011;68337;52.196;5.660;2023-07-29T06:48:24;8.20;;;4.65;;
75320;SDS011;68337;52.196;5.660;2023-07-29T06:50:50;10.48;;;5.40;;
75320;SDS011;68337;52.196;5.660;2023-07-29T06:53:17;10.68;;;5.35;;
75320;SDS011;68337;52.196;5.660;2023-07-29T06:55:43;8.05;;;5.25;;
75320;SDS011;68337;52.196;5.660;2023-07-29T06:58:10;7.72;;;4.80;;
75320;SDS011;68337;52.196;5.660;2023-07-29T07:00:36;7.65;;;4.97;;
75320;SDS011;68337;52.196;5.660;2023-07-29T07:03:01;9.00;;;5.25;;
75320;SDS011;68337;52.196;5.660;2023-07-29T07:05:27;8.60;;;4.68;;
75320;SDS011;68337;52.196;5.660;2023-07-29T07:07:53;7.60;;;5.18;;
75320;SDS011;68337;52.196;5.660;2023-07-29T07:10:19;8.63;;;4.43;;
75320;SDS011;68337;52.196;5.660;2023-07-29T07:12:44;6.47;;;4.75;;
75320;SDS011;68337;52.196;5.660;2023-07-29T07:15:10;6.60;;;4.65;;
75320;SDS011;68337;52.196;5.660;2023-07-29T07:17:36;5.55;;;4.40;;
75320;SDS011;68337;52.196;5.660;2023-07-29T07:20:02;9.13;;;5.35;;
75320;SDS011;68337;52.196;5.660;2023-07-29T07:22:28;8.85;;;5.68;;
75320;SDS011;68337;52.196;5.660;2023-07-29T07:24:54;10.77;;;6.22;;
75320;SDS011;68337;52.196;5.660;2023-07-29T07:27:20;9.50;;;5.15;;
75320;SDS011;68337;52.196;5.660;2023-07-29T07:29:45;6.35;;;5.07;;
75320;SDS011;68337;52.196;5.660;2023-07-29T07:32:11;6.20;;;5.60;;
75320;SDS011;68337;52.196;5.660;2023-07-29T07:34:37;7.78;;;5.97;;
75320;SDS011;68337;52.196;5.660;2023-07-29T07:37:03;8.70;;;5.68;;
75320;SDS011;68337;52.196;5.660;2023-07-29T07:39:29;7.68;;;6.03;;
75320;SDS011;68337;52.196;5.660;2023-07-29T07:41:58;7.47;;;6.30;;
75320;SDS011;68337;52.196;5.660;2023-07-29T07:44:24;6.82;;;6.10;;
75320;SDS011;68337;52.196;5.660;2023-07-29T07:46:51;8.35;;;6.40;;
75320;SDS011;68337;52.196;5.660;2023-07-29T07:49:18;9.48;;;6.55;;
75320;SDS011;68337;52.196;5.660;2023-07-29T07:51:44;10.02;;;6.80;;
75320;SDS011;68337;52.196;5.660;2023-07-29T07:54:10;8.40;;;6.57;;
75320;SDS011;68337;52.196;5.660;2023-07-29T07:56:35;6.22;;;5.63;;
75320;SDS011;68337;52.196;5.660;2023-07-29T07:59:01;8.23;;;6.50;;
75320;SDS011;68337;52.196;5.660;2023-07-29T08:01:27;6.75;;;5.80;;
75320;SDS011;68337;52.196;5.660;2023-07-29T08:03:52;8.40;;;5.90;;
75320;SDS011;68337;52.196;5.660;2023-07-29T08:06:18;7.05;;;6.40;;
75320;SDS011;68337;52.196;5.660;2023-07-29T08:08:44;6.47;;;5.88;;
75320;SDS011;68337;52.196;5.660;2023-07-29T08:11:10;7.85;;;6.93;;
75320;SDS011;68337;52.196;5.660;2023-07-29T08:13:35;7.90;;;6.78;;
75320;SDS011;68337;52.196;5.660;2023-07-29T08:16:02;8.85;;;6.82;;
75320;SDS011;68337;52.196;5.660;2023-07-29T08:18:28;8.43;;;6.32;;
75320;SDS011;68337;52.196;5.660;2023-07-29T08:20:54;11.45;;;6.88;;
75320;SDS011;68337;52.196;5.660;2023-07-29T08:23:28;7.93;;;5.88;;
75320;SDS011;68337;52.196;5.660;2023-07-29T08:26:01;5.90;;;5.40;;
75320;SDS011;68337;52.196;5.660;2023-07-29T08:28:30;10.45;;;5.70;;
75320;SDS011;68337;52.196;5.660;2023-07-29T08:31:01;6.30;;;5.70;;
75320;SDS011;68337;52.196;5.660;2023-07-29T08:33:28;6.78;;;6.18;;
75320;SDS011;68337;52.196;5.660;2023-07-29T08:35:54;8.10;;;5.43;;
75320;SDS011;68337;52.196;5.660;2023-07-29T08:38:20;6.47;;;5.35;;
75320;SDS011;68337;52.196;5.660;2023-07-29T08:40:52;5.53;;;4.93;;
75320;SDS011;68337;52.196;5.660;2023-07-29T08:43:29;5.78;;;5.03;;
75320;SDS011;68337;52.196;5.660;2023-07-29T08:45:58;6.50;;;5.05;;
75320;SDS011;68337;52.196;5.660;2023-07-29T08:48:40;7.65;;;4.75;;
75320;SDS011;68337;52.196;5.660;2023-07-29T08:51:07;7.03;;;3.95;;
75320;SDS011;68337;52.196;5.660;2023-07-29T08:53:35;8.27;;;4.65;;
75320;SDS011;68337;52.196;5.660;2023-07-29T08:56:02;5.07;;;4.13;;
75320;SDS011;68337;52.196;5.660;2023-07-29T08:58:34;3.75;;;3.38;;
75320;SDS011;68337;52.196;5.660;2023-07-29T09:01:01;3.42;;;3.13;;
75320;SDS011;68337;52.196;5.660;2023-07-29T09:03:28;8.10;;;3.97;;
75320;SDS011;68337;52.196;5.660;2023-07-29T09:05:54;7.38;;;3.90;;
75320;SDS011;68337;52.196;5.660;2023-07-29T09:08:22;6.45;;;3.67;;
75320;SDS011;68337;52.196;5.660;2023-07-29T09:10:50;5.80;;;3.67;;
75320;SDS011;68337;52.196;5.660;2023-07-29T09:13:17;4.38;;;3.42;;
75320;SDS011;68337;52.196;5.660;2023-07-29T09:15:42;3.97;;;3.40;;
75320;SDS011;68337;52.196;5.660;2023-07-29T09:18:09;4.22;;;3.25;;
75320;SDS011;68337;52.196;5.660;2023-07-29T09:20:49;3.80;;;3.20;;
75320;SDS011;68337;52.196;5.660;2023-07-29T09:23:15;5.43;;;2.75;;
75320;SDS011;68337;52.196;5.660;2023-07-29T09:25:41;3.60;;;2.83;;
75320;SDS011;68337;52.196;5.660;2023-07-29T09:28:09;3.17;;;2.65;;
75320;SDS011;68337;52.196;5.660;2023-07-29T09:30:40;5.07;;;2.60;;
75320;SDS011;68337;52.196;5.660;2023-07-29T09:33:08;3.10;;;2.65;;
75320;SDS011;68337;52.196;5.660;2023-07-29T09:35:35;2.65;;;2.45;;
75320;SDS011;68337;52.196;5.660;2023-07-29T09:38:05;4.65;;;2.40;;
75320;SDS011;68337;52.196;5.660;2023-07-29T09:40:37;3.15;;;2.85;;
75320;SDS011;68337;52.196;5.660;2023-07-29T09:43:04;4.28;;;3.42;;
75320;SDS011;68337;52.196;5.660;2023-07-29T09:45:32;5.82;;;2.80;;
75320;SDS011;68337;52.196;5.660;2023-07-29T09:47:59;6.20;;;3.35;;
75320;SDS011;68337;52.196;5.660;2023-07-29T09:50:25;4.35;;;2.83;;
75320;SDS011;68337;52.196;5.660;2023-07-29T09:52:52;5.50;;;2.85;;
75320;SDS011;68337;52.196;5.660;2023-07-29T09:55:19;4.85;;;2.95;;
75320;SDS011;68337;52.196;5.660;2023-07-29T09:57:52;3.35;;;3.05;;
75320;SDS011;68337;52.196;5.660;2023-07-29T10:00:20;4.53;;;3.05;;
75320;SDS011;68337;52.196;5.660;2023-07-29T10:02:46;5.88;;;2.95;;
75320;SDS011;68337;52.196;5.660;2023-07-29T10:05:13;4.22;;;3.13;;
75320;SDS011;68337;52.196;5.660;2023-07-29T10:07:39;4.63;;;3.25;;
75320;SDS011;68337;52.196;5.660;2023-07-29T10:10:05;5.00;;;3.38;;
75320;SDS011;68337;52.196;5.660;2023-07-29T10:12:33;4.03;;;3.15;;
75320;SDS011;68337;52.196;5.660;2023-07-29T10:15:00;6.38;;;3.22;;
75320;SDS011;68337;52.196;5.660;2023-07-29T10:17:30;5.38;;;3.53;;
75320;SDS011;68337;52.196;5.660;2023-07-29T10:20:03;4.25;;;3.90;;
75320;SDS011;68337;52.196;5.660;2023-07-29T10:22:35;5.35;;;3.25;;
75320;SDS011;68337;52.196;5.660;2023-07-29T10:25:08;4.20;;;3.80;;
75320;SDS011;68337;52.196;5.660;2023-07-29T10:27:38;5.10;;;4.70;;
75320;SDS011;68337;52.196;5.660;2023-07-29T10:30:13;7.07;;;4.90;;
75320;SDS011;68337;52.196;5.660;2023-07-29T10:32:40;7.03;;;4.57;;
75320;SDS011;68337;52.196;5.660;2023-07-29T10:35:08;5.38;;;4.80;;
75320;SDS011;68337;52.196;5.660;2023-07-29T10:37:34;5.30;;;4.80;;
75320;SDS011;68337;52.196;5.660;2023-07-29T10:40:00;5.40;;;4.40;;
75320;SDS011;68337;52.196;5.660;2023-07-29T10:42:32;5.18;;;4.30;;
75320;SDS011;68337;52.196;5.660;2023-07-29T10:44:58;4.70;;;4.30;;
75320;SDS011;68337;52.196;5.660;2023-07-29T10:47:26;5.28;;;4.60;;
75320;SDS011;68337;52.196;5.660;2023-07-29T10:49:59;4.72;;;4.32;;
75320;SDS011;68337;52.196;5.660;2023-07-29T10:52:29;6.22;;;4.85;;
75320;SDS011;68337;52.196;5.660;2023-07-29T10:55:04;5.30;;;4.75;;
75320;SDS011;68337;52.196;5.660;2023-07-29T10:57:50;4.75;;;4.40;;
75320;SDS011;68337;52.196;5.660;2023-07-29T11:00:30;5.68;;;5.05;;
75320;SDS011;68337;52.196;5.660;2023-07-29T11:02:59;5.63;;;4.97;;
75320;SDS011;68337;52.196;5.660;2023-07-29T11:05:27;5.35;;;5.00;;
75320;SDS011;68337;52.196;5.660;2023-07-29T11:08:19;5.15;;;4.63;;
75320;SDS011;68337;52.196;5.660;2023-07-29T11:10:57;5.50;;;5.03;;
75320;SDS011;68337;52.196;5.660;2023-07-29T11:13:27;5.47;;;4.95;;
75320;SDS011;68337;52.196;5.660;2023-07-29T11:15:56;5.22;;;4.75;;
75320;SDS011;68337;52.196;5.660;2023-07-29T11:18:27;5.15;;;4.75;;
75320;SDS011;68337;52.196;5.660;2023-07-29T11:20:55;6.22;;;5.70;;
75320;SDS011;68337;52.196;5.660;2023-07-29T11:23:43;7.28;;;5.30;;
75320;SDS011;68337;52.196;5.660;2023-07-29T11:26:08;6.13;;;5.57;;
75320;SDS011;68337;52.196;5.660;2023-07-29T11:28:37;6.30;;;5.78;;
75320;SDS011;68337;52.196;5.660;2023-07-29T11:31:05;6.30;;;5.80;;
75320;SDS011;68337;52.196;5.660;2023-07-29T11:33:31;6.60;;;6.10;;
75320;SDS011;68337;52.196;5.660;2023-07-29T11:35:57;7.05;;;6.35;;
75320;SDS011;68337;52.196;5.660;2023-07-29T11:38:23;6.25;;;5.65;;
75320;SDS011;68337;52.196;5.660;2023-07-29T11:40:56;4.88;;;4.47;;
75320;SDS011;68337;52.196;5.660;2023-07-29T11:43:35;5.20;;;4.68;;
75320;SDS011;68337;52.196;5.660;2023-07-29T11:46:01;3.92;;;3.55;;
75320;SDS011;68337;52.196;5.660;2023-07-29T11:48:27;3.75;;;3.45;;
75320;SDS011;68337;52.196;5.660;2023-07-29T11:51:02;5.07;;;2.55;;
75320;SDS011;68337;52.196;5.660;2023-07-29T11:53:28;4.88;;;2.10;;
75320;SDS011;68337;52.196;5.660;2023-07-29T11:55:55;4.70;;;2.25;;
75320;SDS011;68337;52.196;5.660;2023-07-29T11:58:22;4.47;;;1.65;;
75320;SDS011;68337;52.196;5.660;2023-07-29T12:00:48;1.70;;;1.60;;
75320;SDS011;68337;52.196;5.660;2023-07-29T12:03:15;2.80;;;1.55;;
75320;SDS011;68337;52.196;5.660;2023-07-29T12:05:42;1.48;;;1.00;;
75320;SDS011;68337;52.196;5.660;2023-07-29T12:08:09;4.43;;;1.60;;
75320;SDS011;68337;52.196;5.660;2023-07-29T12:10:35;1.75;;;1.60;;
75320;SDS011;68337;52.196;5.660;2023-07-29T12:13:01;3.08;;;1.67;;
75320;SDS011;68337;52.196;5.660;2023-07-29T12:15:28;2.35;;;2.00;;
75320;SDS011;68337;52.196;5.660;2023-07-29T12:17:58;2.10;;;1.85;;
75320;SDS011;68337;52.196;5.660;2023-07-29T12:20:25;1.80;;;1.42;;
75320;SDS011;68337;52.196;5.660;2023-07-29T12:22:58;2.33;;;2.20;;
75320;SDS011;68337;52.196;5.660;2023-07-29T12:25:30;3.80;;;2.88;;
75320;SDS011;68337;52.196;5.660;2023-07-29T12:27:56;6.43;;;4.15;;
75320;SDS011;68337;52.196;5.660;2023-07-29T12:30:26;5.85;;;3.88;;
75320;SDS011;68337;52.196;5.660;2023-07-29T12:32:53;4.57;;;2.90;;
75320;SDS011;68337;52.196;5.660;2023-07-29T12:35:18;5.22;;;2.47;;
75320;SDS011;68337;52.196;5.660;2023-07-29T12:37:44;2.72;;;2.53;;
75320;SDS011;68337;52.196;5.660;2023-07-29T12:40:23;2.10;;;2.00;;
75320;SDS011;68337;52.196;5.660;2023-07-29T12:42:50;2.13;;;2.03;;
75320;SDS011;68337;52.196;5.660;2023-07-29T12:45:16;2.05;;;1.95;;
75320;SDS011;68337;52.196;5.660;2023-07-29T12:47:43;2.22;;;1.98;;
75320;SDS011;68337;52.196;5.660;2023-07-29T12:50:09;2.28;;;2.08;;
75320;SDS011;68337;52.196;5.660;2023-07-29T12:52:34;1.80;;;1.70;;
75320;SDS011;68337;52.196;5.660;2023-07-29T12:55:00;1.80;;;1.70;;
75320;SDS011;68337;52.196;5.660;2023-07-29T12:57:26;3.28;;;1.90;;
75320;SDS011;68337;52.196;5.660;2023-07-29T12:59:52;1.48;;;1.38;;
75320;SDS011;68337;52.196;5.660;2023-07-29T13:02:18;2.13;;;2.03;;
75320;SDS011;68337;52.196;5.660;2023-07-29T13:04:44;2.63;;;2.00;;
75320;SDS011;68337;52.196;5.660;2023-07-29T13:07:10;1.80;;;1.67;;
75320;SDS011;68337;52.196;5.660;2023-07-29T13:09:35;2.13;;;1.60;;
75320;SDS011;68337;52.196;5.660;2023-07-29T13:12:01;2.78;;;1.42;;
75320;SDS011;68337;52.196;5.660;2023-07-29T13:14:27;1.58;;;1.45;;
75320;SDS011;68337;52.196;5.660;2023-07-29T13:16:53;2.67;;;1.88;;
75320;SDS011;68337;52.196;5.660;2023-07-29T13:19:18;1.88;;;1.77;;
75320;SDS011;68337;52.196;5.660;2023-07-29T13:21:44;1.88;;;1.67;;
75320;SDS011;68337;52.196;5.660;2023-07-29T13:24:10;1.88;;;1.20;;
75320;SDS011;68337;52.196;5.660;2023-07-29T13:26:36;2.72;;;1.35;;
75320;SDS011;68337;52.196;5.660;2023-07-29T13:29:02;2.58;;;1.58;;
75320;SDS011;68337;52.196;5.660;2023-07-29T13:31:29;2.35;;;1.27;;
75320;SDS011;68337;52.196;5.660;2023-07-29T13:33:56;1.23;;;0.80;;
75320;SDS011;68337;52.196;5.660;2023-07-29T13:36:22;2.47;;;1.30;;
75320;SDS011;68337;52.196;5.660;2023-07-29T13:38:47;1.27;;;1.17;;
75320;SDS011;68337;52.196;5.660;2023-07-29T13:41:13;1.15;;;1.13;;
75320;SDS011;68337;52.196;5.660;2023-07-29T13:43:39;1.20;;;1.20;;
75320;SDS011;68337;52.196;5.660;2023-07-29T13:46:05;3.05;;;1.08;;
75320;SDS011;68337;52.196;5.660;2023-07-29T13:48:31;2.20;;;1.00;;
75320;SDS011;68337;52.196;5.660;2023-07-29T13:50:58;1.20;;;1.10;;
75320;SDS011;68337;52.196;5.660;2023-07-29T13:53:24;1.48;;;1.23;;
75320;SDS011;68337;52.196;5.660;2023-07-29T13:55:51;1.75;;;1.17;;
75320;SDS011;68337;52.196;5.660;2023-07-29T13:58:16;1.52;;;1.42;;
75320;SDS011;68337;52.196;5.660;2023-07-29T14:00:42;5.40;;;1.65;;
75320;SDS011;68337;52.196;5.660;2023-07-29T14:03:08;3.88;;;2.15;;
75320;SDS011;68337;52.196;5.660;2023-07-29T14:05:34;3.60;;;2.10;;
75320;SDS011;68337;52.196;5.660;2023-07-29T14:08:00;2.70;;;2.50;;
75320;SDS011;68337;52.196;5.660;2023-07-29T14:10:26;4.95;;;2.25;;
75320;SDS011;68337;52.196;5.660;2023-07-29T14:12:52;4.22;;;2.42;;
75320;SDS011;68337;52.196;5.660;2023-07-29T14:15:17;4.13;;;2.17;;
75320;SDS011;68337;52.196;5.660;2023-07-29T14:17:43;3.95;;;2.40;;
75320;SDS011;68337;52.196;5.660;2023-07-29T14:20:09;5.32;;;2.47;;
75320;SDS011;68337;52.196;5.660;2023-07-29T14:22:36;2.03;;;1.85;;
75320;SDS011;68337;52.196;5.660;2023-07-29T14:25:01;2.88;;;2.20;;
75320;SDS011;68337;52.196;5.660;2023-07-29T14:27:27;4.05;;;1.90;;
75320;SDS011;68337;52.196;5.660;2023-07-29T14:29:53;2.55;;;1.95;;
75320;SDS011;68337;52.196;5.660;2023-07-29T14:32:19;2.95;;;2.25;;
75320;SDS011;68337;52.196;5.660;2023-07-29T14:34:44;2.28;;;1.90;;
75320;SDS011;68337;52.196;5.660;2023-07-29T14:37:10;2.17;;;2.08;;
75320;SDS011;68337;52.196;5.660;2023-07-29T14:39:36;2.83;;;1.98;;
75320;SDS011;68337;52.196;5.660;2023-07-29T14:42:02;2.40;;;2.20;;
75320;SDS011;68337;52.196;5.660;2023-07-29T14:44:28;2.33;;;1.88;;
75320;SDS011;68337;52.196;5.660;2023-07-29T14:46:54;2.10;;;1.98;;
75320;SDS011;68337;52.196;5.660;2023-07-29T14:49:20;1.70;;;1.60;;
75320;SDS011;68337;52.196;5.660;2023-07-29T14:51:46;1.90;;;1.80;;
75320;SDS011;68337;52.196;5.660;2023-07-29T14:54:12;1.92;;;1.50;;